createdAt,value
2023-04-16T00:01:58.307Z,98213.31
2023-04-16T00:04:25.241Z,98211.25
2023-04-16T00:06:52.045Z,98209.09
2023-04-16T00:09:18.754Z,98204.13
2023-04-16T00:11:45.477Z,98209.84
2023-04-16T00:14:12.210Z,98205.03
2023-04-16T00:16:38.945Z,98214.25
2023-04-16T00:19:05.800Z,98211.34
2023-04-16T00:21:32.608Z,98208.19
2023-04-16T00:23:59.368Z,98213.91
2023-04-16T00:26:26.225Z,98213.16
2023-04-16T00:28:53.528Z,98211.59
2023-04-16T00:31:27.734Z,98215.06
2023-04-16T00:33:56.207Z,98217.66
2023-04-16T00:36:27.560Z,98211.69
2023-04-16T00:38:54.962Z,98222.44
2023-04-16T00:41:23.227Z,98216.94
2023-04-16T00:43:50.317Z,98221.75
2023-04-16T00:46:17.270Z,98216.03
2023-04-16T00:48:44.968Z,98217.66
2023-04-16T00:51:12.132Z,98216.72
2023-04-16T00:53:38.997Z,98220.00
2023-04-16T00:56:07.509Z,98214.16
2023-04-16T00:58:35.422Z,98223.03
2023-04-16T01:01:02.579Z,98222.47
2023-04-16T01:03:38.711Z,98220.59
2023-04-16T01:06:07.686Z,98221.81
2023-04-16T01:08:34.488Z,98220.69
2023-04-16T01:11:01.441Z,98219.25
2023-04-16T01:13:28.260Z,98224.25
2023-04-16T01:15:55.466Z,98221.91
2023-04-16T01:18:23.610Z,98230.25
2023-04-16T01:20:51.449Z,98227.53
2023-04-16T01:23:18.869Z,98225.28
2023-04-16T01:25:46.339Z,98230.81
2023-04-16T01:28:13.086Z,98236.81
2023-04-16T01:30:39.788Z,98237.22
2023-04-16T01:33:18.651Z,98237.34
2023-04-16T01:35:45.685Z,98238.72
2023-04-16T01:38:14.572Z,98230.56
2023-04-16T01:40:41.314Z,98234.56
2023-04-16T01:43:08.061Z,98237.06
2023-04-16T01:45:35.483Z,98236.53
2023-04-16T01:48:02.643Z,98241.09
2023-04-16T01:50:30.047Z,98238.72
2023-04-16T01:52:56.807Z,98236.69
2023-04-16T01:55:23.582Z,98242.91
2023-04-16T01:57:51.008Z,98238.41
2023-04-16T02:00:18.258Z,98239.59
2023-04-16T02:02:49.461Z,98241.56
2023-04-16T02:05:23.996Z,98235.44
2023-04-16T02:07:50.710Z,98228.81
2023-04-16T02:10:17.504Z,98239.91
2023-04-16T02:12:44.712Z,98232.66
2023-04-16T02:15:12.893Z,98236.78
2023-04-16T02:17:39.638Z,98232.81
2023-04-16T02:20:11.112Z,98228.56
2023-04-16T02:22:48.182Z,98235.75
2023-04-16T02:25:18.447Z,98241.56
2023-04-16T02:27:46.161Z,98236.31
2023-04-16T02:30:24.518Z,98246.91
2023-04-16T02:32:52.441Z,98243.63
2023-04-16T02:35:19.913Z,98247.03
2023-04-16T02:37:46.641Z,98245.72
2023-04-16T02:40:13.335Z,98238.25
2023-04-16T02:42:40.023Z,98249.09
2023-04-16T02:45:08.029Z,98244.59
2023-04-16T02:47:34.726Z,98251.13
2023-04-16T02:50:01.452Z,98244.59
2023-04-16T02:52:28.214Z,98252.19
2023-04-16T02:54:55.550Z,98249.66
2023-04-16T02:57:22.268Z,98246.38
2023-04-16T02:59:49.035Z,98251.97
2023-04-16T03:02:16.457Z,98245.66
2023-04-16T03:04:43.428Z,98248.38
2023-04-16T03:07:11.304Z,98256.31
2023-04-16T03:09:38.264Z,98247.59
2023-04-16T03:12:05.184Z,98248.63
2023-04-16T03:14:32.032Z,98254.22
2023-04-16T03:16:58.979Z,98256.63
2023-04-16T03:19:26.131Z,98257.16
2023-04-16T03:21:52.913Z,98257.16
2023-04-16T03:24:19.601Z,98267.00
2023-04-16T03:26:48.952Z,98262.19
2023-04-16T03:29:15.889Z,98259.84
2023-04-16T03:31:42.787Z,98262.53
2023-04-16T03:34:09.816Z,98260.31
2023-04-16T03:36:36.575Z,98266.69
2023-04-16T03:39:03.598Z,98269.72
2023-04-16T03:41:30.577Z,98265.97
2023-04-16T03:43:58.029Z,98265.78
2023-04-16T03:46:24.794Z,98269.38
2023-04-16T03:48:52.357Z,98275.09
2023-04-16T03:51:19.066Z,98272.88
2023-04-16T03:53:46.226Z,98274.66
2023-04-16T03:56:14.238Z,98272.19
2023-04-16T03:58:41.214Z,98281.78
2023-04-16T04:01:08.429Z,98277.47
2023-04-16T04:03:36.761Z,98280.97
2023-04-16T04:06:10.326Z,98282.94
2023-04-16T04:08:37.109Z,98279.53
2023-04-16T04:11:04.968Z,98279.53
2023-04-16T04:13:33.398Z,98284.66
2023-04-16T04:16:00.156Z,98284.34
2023-04-16T04:18:27.914Z,98289.84
2023-04-16T04:20:54.747Z,98284.56
2023-04-16T04:23:25.516Z,98293.16
2023-04-16T04:25:52.284Z,98286.16
2023-04-16T04:28:19.061Z,98298.81
2023-04-16T04:30:45.927Z,98297.22
2023-04-16T04:33:13.182Z,98303.31
2023-04-16T04:35:39.939Z,98306.78
2023-04-16T04:38:08.244Z,98310.34
2023-04-16T04:40:35.182Z,98310.53
2023-04-16T04:43:03.150Z,98308.41
2023-04-16T04:45:31.770Z,98306.44
2023-04-16T04:47:59.096Z,98310.50
2023-04-16T04:50:26.081Z,98306.53
2023-04-16T04:52:52.768Z,98316.59
2023-04-16T04:55:19.554Z,98318.44
2023-04-16T04:57:46.486Z,98320.22
2023-04-16T05:00:13.624Z,98317.59
2023-04-16T05:03:02.074Z,98325.31
2023-04-16T05:05:28.866Z,98322.66
2023-04-16T05:07:55.805Z,98330.97
2023-04-16T05:10:22.580Z,98333.13
2023-04-16T05:12:49.352Z,98336.94
2023-04-16T05:15:16.797Z,98340.75
2023-04-16T05:17:43.519Z,98344.59
2023-04-16T05:20:10.648Z,98339.09
2023-04-16T05:22:37.342Z,98344.06
2023-04-16T05:25:04.397Z,98345.34
2023-04-16T05:27:31.133Z,98357.81
2023-04-16T05:29:58.017Z,98350.19
2023-04-16T05:32:28.030Z,98356.06
2023-04-16T05:34:54.888Z,98352.72
2023-04-16T05:37:21.628Z,98363.22
2023-04-16T05:39:48.463Z,98369.56
2023-04-16T05:42:15.280Z,98362.38
2023-04-16T05:44:42.179Z,98369.88
2023-04-16T05:47:09.614Z,98368.53
2023-04-16T05:49:39.504Z,98375.44
2023-04-16T05:52:06.380Z,98376.78
2023-04-16T05:54:33.133Z,98375.53
2023-04-16T05:57:01.244Z,98378.31
2023-04-16T05:59:29.410Z,98380.38
2023-04-16T06:01:56.369Z,98382.19
2023-04-16T06:04:23.244Z,98383.34
2023-04-16T06:06:50.150Z,98382.81
2023-04-16T06:09:16.973Z,98383.94
2023-04-16T06:11:43.780Z,98382.22
2023-04-16T06:14:11.011Z,98386.19
2023-04-16T06:16:38.889Z,98380.19
2023-04-16T06:19:05.745Z,98384.88
2023-04-16T06:21:32.671Z,98385.28
2023-04-16T06:23:59.387Z,98382.47
2023-04-16T06:26:26.861Z,98394.00
2023-04-16T06:28:54.174Z,98394.28
2023-04-16T06:31:21.257Z,98395.94
2023-04-16T06:33:48.004Z,98395.56
2023-04-16T06:36:14.736Z,98399.75
2023-04-16T06:38:41.410Z,98398.78
2023-04-16T06:41:08.191Z,98401.00
2023-04-16T06:43:35.067Z,98406.28
2023-04-16T06:46:01.744Z,98402.34
2023-04-16T06:48:28.547Z,98410.56
2023-04-16T06:50:56.147Z,98407.31
2023-04-16T06:53:23.754Z,98408.31
2023-04-16T06:55:50.721Z,98407.81
2023-04-16T06:58:18.056Z,98412.06
2023-04-16T07:00:45.512Z,98409.03
2023-04-16T07:03:12.556Z,98420.88
2023-04-16T07:05:39.514Z,98416.75
2023-04-16T07:08:06.403Z,98408.69
2023-04-16T07:10:33.524Z,98418.13
2023-04-16T07:13:01.705Z,98422.34
2023-04-16T07:15:28.834Z,98418.75
2023-04-16T07:17:55.868Z,98418.50
2023-04-16T07:20:22.609Z,98424.97
2023-04-16T07:22:49.564Z,98423.72
2023-04-16T07:25:16.432Z,98429.81
2023-04-16T07:27:43.223Z,98427.28
2023-04-16T07:30:10.211Z,98427.78
2023-04-16T07:32:37.053Z,98429.06
2023-04-16T07:35:04.187Z,98433.50
2023-04-16T07:37:31.181Z,98436.31
2023-04-16T07:39:57.952Z,98434.59
2023-04-16T07:42:24.736Z,98436.13
2023-04-16T07:44:51.566Z,98438.31
2023-04-16T07:47:18.285Z,98440.78
2023-04-16T07:49:45.021Z,98446.38
2023-04-16T07:52:12.114Z,98446.75
2023-04-16T07:54:38.889Z,98451.31
2023-04-16T07:57:05.607Z,98448.47
2023-04-16T07:59:32.374Z,98453.94
2023-04-16T08:01:59.317Z,98458.97
2023-04-16T08:04:26.640Z,98461.97
2023-04-16T08:06:54.194Z,98458.78
2023-04-16T08:09:22.427Z,98468.38
2023-04-16T08:11:50.102Z,98471.53
2023-04-16T08:14:17.433Z,98468.66
2023-04-16T08:16:44.253Z,98467.56
2023-04-16T08:19:11.236Z,98469.78
2023-04-16T08:21:38.141Z,98474.47
2023-04-16T08:24:04.894Z,98476.13
2023-04-16T08:26:31.612Z,98482.38
2023-04-16T08:28:58.330Z,98483.38
2023-04-16T08:31:25.149Z,98480.59
2023-04-16T08:33:52.025Z,98487.56
2023-04-16T08:36:19.224Z,98487.16
2023-04-16T08:38:45.970Z,98488.94
2023-04-16T08:41:13.823Z,98499.50
2023-04-16T08:43:45.338Z,98499.78
2023-04-16T08:46:12.843Z,98497.53
2023-04-16T08:48:42.358Z,98497.81
2023-04-16T08:51:11.208Z,98499.16
2023-04-16T08:53:49.812Z,98498.38
2023-04-16T08:56:20.900Z,98494.97
2023-04-16T08:58:48.185Z,98513.19
2023-04-16T09:01:15.038Z,98506.75
2023-04-16T09:03:42.168Z,98498.25
2023-04-16T09:06:10.111Z,98507.41
2023-04-16T09:08:38.323Z,98511.97
2023-04-16T09:11:05.095Z,98512.53
2023-04-16T09:13:32.359Z,98516.81
2023-04-16T09:16:00.155Z,98520.56
2023-04-16T09:18:28.277Z,98518.88
2023-04-16T09:20:56.511Z,98510.72
2023-04-16T09:23:23.442Z,98524.06
2023-04-16T09:25:50.182Z,98520.69
2023-04-16T09:28:42.605Z,98518.53
2023-04-16T09:31:16.629Z,98527.84
2023-04-16T09:33:44.674Z,98527.81
2023-04-16T09:36:11.528Z,98531.41
2023-04-16T09:38:49.081Z,98537.66
2023-04-16T09:41:16.828Z,98534.09
2023-04-16T09:43:55.287Z,98534.78
2023-04-16T09:46:22.133Z,98538.94
2023-04-16T09:48:48.900Z,98536.44
2023-04-16T09:51:15.688Z,98541.97
2023-04-16T09:53:42.381Z,98546.38
2023-04-16T09:56:09.225Z,98546.50
2023-04-16T09:58:36.708Z,98545.53
2023-04-16T10:01:11.353Z,98551.34
2023-04-16T10:03:41.704Z,98547.78
2023-04-16T10:06:19.772Z,98549.72
2023-04-16T10:08:50.871Z,98552.16
2023-04-16T10:11:19.046Z,98558.84
2023-04-16T10:13:46.154Z,98556.25
2023-04-16T10:16:13.431Z,98567.69
2023-04-16T10:18:41.603Z,98566.03
2023-04-16T10:21:08.933Z,98566.44
2023-04-16T10:23:35.904Z,98562.25
2023-04-16T10:26:03.193Z,98570.72
2023-04-16T10:28:31.187Z,98564.88
2023-04-16T10:30:58.842Z,98566.16
2023-04-16T10:33:27.735Z,98572.97
2023-04-16T10:36:10.999Z,98567.25
2023-04-16T10:38:50.922Z,98567.38
2023-04-16T10:41:17.610Z,98579.66
2023-04-16T10:43:47.294Z,98580.06
2023-04-16T10:46:24.208Z,98571.13
2023-04-16T10:48:53.998Z,98571.69
2023-04-16T10:51:34.682Z,98570.84
2023-04-16T10:54:20.286Z,98575.59
2023-04-16T10:56:47.764Z,98567.78
2023-04-16T10:59:18.676Z,98572.06
2023-04-16T11:01:47.571Z,98569.00
2023-04-16T11:04:20.342Z,98571.31
2023-04-16T11:07:11.917Z,98575.53
2023-04-16T11:09:53.602Z,98578.97
2023-04-16T11:12:27.894Z,98576.34
2023-04-16T11:15:14.956Z,98579.72
2023-04-16T11:17:44.166Z,98578.19
2023-04-16T11:20:28.025Z,98590.38
2023-04-16T11:22:56.604Z,98582.50
2023-04-16T11:25:25.070Z,98581.66
2023-04-16T11:27:52.320Z,98579.72
2023-04-16T11:30:29.551Z,98581.53
2023-04-16T11:32:56.322Z,98581.53
2023-04-16T11:35:23.099Z,98581.66
2023-04-16T11:37:49.877Z,98582.63
2023-04-16T11:40:16.635Z,98587.78
2023-04-16T11:42:44.557Z,98578.28
2023-04-16T11:45:12.216Z,98578.88
2023-04-16T11:47:52.392Z,98581.09
2023-04-16T11:50:28.627Z,98584.09
2023-04-16T11:53:04.714Z,98583.06
2023-04-16T11:55:31.444Z,98578.19
2023-04-16T11:58:11.661Z,98590.03
2023-04-16T12:00:38.604Z,98584.44
2023-04-16T12:03:05.565Z,98589.53
2023-04-16T12:05:38.900Z,98584.84
2023-04-16T12:08:07.991Z,98591.75
2023-04-16T12:10:37.494Z,98588.84
2023-04-16T12:13:15.437Z,98591.75
2023-04-16T12:15:51.939Z,98588.94
2023-04-16T12:18:19.005Z,98588.53
2023-04-16T12:20:46.407Z,98596.63
2023-04-16T12:23:26.883Z,98586.38
2023-04-16T12:25:54.241Z,98592.19
2023-04-16T12:28:35.021Z,98599.81
2023-04-16T12:31:03.070Z,98602.00
2023-04-16T12:33:30.022Z,98598.47
2023-04-16T12:35:56.970Z,98595.34
2023-04-16T12:38:26.947Z,98593.09
2023-04-16T12:40:57.242Z,98601.56
2023-04-16T12:43:24.740Z,98596.88
2023-04-16T12:45:51.567Z,98604.47
2023-04-16T12:48:18.313Z,98603.69
2023-04-16T12:50:45.137Z,98600.41
2023-04-16T12:53:12.148Z,98601.75
2023-04-16T12:55:39.159Z,98602.00
2023-04-16T12:58:05.874Z,98605.09
2023-04-16T13:00:33.017Z,98603.28
2023-04-16T13:03:00.262Z,98593.28
2023-04-16T13:05:27.346Z,98601.84
2023-04-16T13:07:54.316Z,98595.38
2023-04-16T13:10:22.246Z,98598.16
2023-04-16T13:12:49.201Z,98593.53
2023-04-16T13:15:16.106Z,98594.88
2023-04-16T13:17:42.879Z,98592.56
2023-04-16T13:20:10.347Z,98593.00
2023-04-16T13:22:37.183Z,98592.38
2023-04-16T13:25:04.015Z,98603.47
2023-04-16T13:27:32.263Z,98594.59
2023-04-16T13:29:59.052Z,98593.41
2023-04-16T13:32:25.923Z,98596.03
2023-04-16T13:34:52.930Z,98592.81
2023-04-16T13:37:19.635Z,98596.09
2023-04-16T13:39:46.635Z,98599.28
2023-04-16T13:42:13.350Z,98607.88
2023-04-16T13:44:40.102Z,98612.66
2023-04-16T13:47:06.952Z,98607.91
2023-04-16T13:49:36.156Z,98603.47
2023-04-16T13:52:03.384Z,98606.22
2023-04-16T13:54:30.136Z,98609.34
2023-04-16T13:56:57.024Z,98611.25
2023-04-16T13:59:23.810Z,98610.38
2023-04-16T14:01:51.204Z,98606.91
2023-04-16T14:04:18.078Z,98602.44
2023-04-16T14:06:45.088Z,98601.22
2023-04-16T14:09:12.020Z,98602.44
2023-04-16T14:11:38.821Z,98603.88
2023-04-16T14:14:05.663Z,98603.31
2023-04-16T14:16:32.451Z,98612.88
2023-04-16T14:18:59.184Z,98606.53
2023-04-16T14:21:27.291Z,98610.13
2023-04-16T14:23:54.089Z,98602.19
2023-04-16T14:26:21.445Z,98605.06
2023-04-16T14:28:48.518Z,98608.91
2023-04-16T14:31:15.301Z,98599.72
2023-04-16T14:33:42.049Z,98605.50
2023-04-16T14:36:08.939Z,98606.44
2023-04-16T14:38:38.572Z,98601.56
2023-04-16T14:41:05.333Z,98602.38
2023-04-16T14:43:32.109Z,98597.19
2023-04-16T14:45:59.164Z,98599.69
2023-04-16T14:48:26.298Z,98604.28
2023-04-16T14:50:56.447Z,98596.34
2023-04-16T14:53:23.837Z,98602.34
2023-04-16T14:55:52.007Z,98603.94
2023-04-16T14:58:18.985Z,98613.38
2023-04-16T15:00:45.932Z,98614.47
2023-04-16T15:03:13.185Z,98615.63
2023-04-16T15:05:40.075Z,98614.81
2023-04-16T15:08:07.420Z,98615.50
2023-04-16T15:10:35.190Z,98614.22
2023-04-16T15:13:01.897Z,98608.09
2023-04-16T15:15:28.861Z,98609.47
2023-04-16T15:17:57.181Z,98607.56
2023-04-16T15:20:23.889Z,98612.28
2023-04-16T15:22:50.662Z,98612.56
2023-04-16T15:25:17.568Z,98608.19
2023-04-16T15:27:44.296Z,98609.53
2023-04-16T15:30:12.809Z,98616.75
2023-04-16T15:32:39.535Z,98618.16
2023-04-16T15:35:06.907Z,98616.91
2023-04-16T15:37:34.229Z,98615.84
2023-04-16T15:40:01.371Z,98616.22
2023-04-16T15:42:28.152Z,98622.84
2023-04-16T15:44:54.853Z,98622.88
2023-04-16T15:47:21.668Z,98622.78
2023-04-16T15:49:48.368Z,98623.75
2023-04-16T15:52:15.928Z,98618.19
2023-04-16T15:54:43.167Z,98621.81
2023-04-16T15:57:09.859Z,98623.53
2023-04-16T15:59:36.581Z,98617.84
2023-04-16T16:02:03.343Z,98625.19
2023-04-16T16:04:30.341Z,98627.50
2023-04-16T16:06:57.270Z,98627.38
2023-04-16T16:09:26.906Z,98623.72
2023-04-16T16:11:54.685Z,98632.09
2023-04-16T16:14:22.169Z,98629.13
2023-04-16T16:16:48.850Z,98631.75
2023-04-16T16:19:15.549Z,98631.75
2023-04-16T16:21:42.330Z,98631.50
2023-04-16T16:24:09.605Z,98631.34
2023-04-16T16:26:36.787Z,98636.06
2023-04-16T16:29:03.850Z,98628.16
2023-04-16T16:31:30.681Z,98637.47
2023-04-16T16:33:57.516Z,98636.34
2023-04-16T16:36:24.346Z,98641.25
2023-04-16T16:38:53.812Z,98634.44
2023-04-16T16:41:20.734Z,98632.28
2023-04-16T16:43:47.456Z,98634.94
2023-04-16T16:46:14.197Z,98631.78
2023-04-16T16:48:41.077Z,98634.88
2023-04-16T16:51:10.788Z,98641.22
2023-04-16T16:53:37.689Z,98643.47
2023-04-16T16:56:04.572Z,98640.22
2023-04-16T16:58:32.168Z,98645.06
2023-04-16T17:00:59.424Z,98645.09
2023-04-16T17:03:26.335Z,98644.97
2023-04-16T17:05:53.662Z,98646.50
2023-04-16T17:08:20.558Z,98644.41
2023-04-16T17:10:47.278Z,98650.50
2023-04-16T17:13:15.280Z,98650.69
2023-04-16T17:15:42.172Z,98645.31
2023-04-16T17:18:08.890Z,98650.69
2023-04-16T17:20:35.683Z,98653.72
2023-04-16T17:23:02.562Z,98654.94
2023-04-16T17:25:29.656Z,98652.31
2023-04-16T17:27:56.576Z,98652.91
2023-04-16T17:30:27.938Z,98656.28
2023-04-16T17:32:54.774Z,98657.06
2023-04-16T17:35:21.576Z,98658.84
2023-04-16T17:37:48.242Z,98664.53
2023-04-16T17:40:18.226Z,98657.06
2023-04-16T17:42:45.628Z,98660.38
2023-04-16T17:45:12.650Z,98660.84
2023-04-16T17:47:39.442Z,98666.56
2023-04-16T17:50:07.425Z,98664.31
2023-04-16T17:52:34.275Z,98663.03
2023-04-16T17:55:01.899Z,98668.03
2023-04-16T17:57:28.680Z,98675.31
2023-04-16T17:59:55.487Z,98671.94
2023-04-16T18:02:22.722Z,98672.38
2023-04-16T18:04:49.773Z,98678.22
2023-04-16T18:07:16.508Z,98675.72
2023-04-16T18:09:43.292Z,98674.38
2023-04-16T18:12:10.061Z,98680.16
2023-04-16T18:14:37.878Z,98675.72
2023-04-16T18:17:06.490Z,98682.28
2023-04-16T18:19:35.601Z,98681.00
2023-04-16T18:22:02.430Z,98684.22
2023-04-16T18:24:29.526Z,98681.72
2023-04-16T18:26:56.886Z,98678.25
2023-04-16T18:29:25.298Z,98693.13
2023-04-16T18:31:52.387Z,98686.47
2023-04-16T18:34:19.347Z,98687.31
2023-04-16T18:36:46.349Z,98702.16
2023-04-16T18:39:13.133Z,98698.56
2023-04-16T18:41:41.050Z,98695.75
2023-04-16T18:44:08.072Z,98707.47
2023-04-16T18:46:34.897Z,98713.19
2023-04-16T18:49:01.708Z,98712.47
2023-04-16T18:51:28.631Z,98708.56
2023-04-16T18:53:55.470Z,98708.84
2023-04-16T18:56:22.253Z,98721.38
2023-04-16T18:58:49.747Z,98718.44
2023-04-16T19:01:16.821Z,98718.88
2023-04-16T19:03:43.838Z,98720.78
2023-04-16T19:06:10.660Z,98723.59
2023-04-16T19:08:37.402Z,98721.06
2023-04-16T19:11:04.116Z,98721.94
2023-04-16T19:13:32.387Z,98726.38
2023-04-16T19:16:00.139Z,98726.66
2023-04-16T19:18:27.018Z,98727.22
2023-04-16T19:21:00.844Z,98732.09
2023-04-16T19:23:28.133Z,98734.34
2023-04-16T19:25:58.018Z,98733.06
2023-04-16T19:28:25.400Z,98736.28
2023-04-16T19:30:52.840Z,98741.00
2023-04-16T19:33:19.644Z,98734.47
2023-04-16T19:35:47.063Z,98737.41
2023-04-16T19:38:14.500Z,98742.22
2023-04-16T19:40:44.527Z,98745.31
2023-04-16T19:43:11.208Z,98740.28
2023-04-16T19:45:43.909Z,98743.22
2023-04-16T19:48:11.429Z,98733.63
2023-04-16T19:50:42.212Z,98737.94
2023-04-16T19:53:09.094Z,98744.22
2023-04-16T19:55:36.636Z,98749.63
2023-04-16T19:58:06.712Z,98744.63
2023-04-16T20:00:35.022Z,98750.34
2023-04-16T20:03:02.245Z,98749.22
2023-04-16T20:05:29.644Z,98742.81
2023-04-16T20:07:56.667Z,98753.38
2023-04-16T20:10:24.043Z,98747.41
2023-04-16T20:12:51.090Z,98749.09
2023-04-16T20:15:18.213Z,98750.63
2023-04-16T20:17:45.128Z,98751.44
2023-04-16T20:20:11.979Z,98747.69
2023-04-16T20:22:39.261Z,98751.28
2023-04-16T20:25:07.354Z,98755.34
2023-04-16T20:27:34.237Z,98750.63
2023-04-16T20:30:01.484Z,98752.72
2023-04-16T20:32:28.321Z,98745.59
2023-04-16T20:34:55.838Z,98746.44
2023-04-16T20:37:22.728Z,98747.56
2023-04-16T20:39:50.442Z,98750.91
2023-04-16T20:42:18.190Z,98754.69
2023-04-16T20:44:50.481Z,98753.84
2023-04-16T20:47:17.406Z,98753.81
2023-04-16T20:49:49.506Z,98745.59
2023-04-16T20:52:16.984Z,98746.88
2023-04-16T20:54:43.762Z,98752.00
2023-04-16T20:57:10.466Z,98741.28
2023-04-16T20:59:37.249Z,98746.69
2023-04-16T21:02:04.029Z,98741.28
2023-04-16T21:04:31.171Z,98738.66
2023-04-16T21:06:57.957Z,98741.81
2023-04-16T21:09:24.890Z,98746.69
2023-04-16T21:11:51.901Z,98743.22
2023-04-16T21:14:18.703Z,98737.13
2023-04-16T21:16:45.631Z,98738.50
2023-04-16T21:19:12.497Z,98737.66
2023-04-16T21:21:39.823Z,98740.75
2023-04-16T21:24:07.129Z,98739.63
2023-04-16T21:26:33.908Z,98738.78
2023-04-16T21:29:00.675Z,98740.47
2023-04-16T21:31:27.591Z,98741.41
2023-04-16T21:33:54.471Z,98739.06
2023-04-16T21:36:21.192Z,98741.28
2023-04-16T21:38:47.900Z,98747.56
2023-04-16T21:41:14.559Z,98736.13
2023-04-16T21:43:41.271Z,98739.22
2023-04-16T21:46:08.090Z,98739.63
2023-04-16T21:48:34.820Z,98742.28
2023-04-16T21:51:06.971Z,98749.81
2023-04-16T21:53:34.396Z,98739.88
2023-04-16T21:56:01.228Z,98742.41
2023-04-16T21:58:28.020Z,98738.94
2023-04-16T22:00:54.943Z,98736.81
2023-04-16T22:03:27.834Z,98738.09
2023-04-16T22:06:01.125Z,98737.53
2023-04-16T22:08:29.088Z,98739.50
2023-04-16T22:11:00.084Z,98743.81
2023-04-16T22:13:27.264Z,98733.78
2023-04-16T22:15:55.106Z,98740.88
2023-04-16T22:18:25.696Z,98736.72
2023-04-16T22:20:56.229Z,98734.91
2023-04-16T22:23:26.214Z,98739.50
2023-04-16T22:25:54.918Z,98732.53
2023-04-16T22:28:21.778Z,98737.53
2023-04-16T22:30:48.988Z,98737.13
2023-04-16T22:33:15.923Z,98738.38
2023-04-16T22:35:42.726Z,98730.31
2023-04-16T22:38:10.435Z,98728.66
2023-04-16T22:40:37.312Z,98729.47
2023-04-16T22:43:04.874Z,98727.13
2023-04-16T22:45:31.711Z,98724.78
2023-04-16T22:47:58.554Z,98732.72
2023-04-16T22:50:25.302Z,98730.72
2023-04-16T22:52:51.999Z,98728.94
2023-04-16T22:55:18.818Z,98728.94
2023-04-16T22:57:45.490Z,98725.44
2023-04-16T23:00:17.908Z,98732.53
2023-04-16T23:02:45.136Z,98732.53
2023-04-16T23:05:12.221Z,98735.06
2023-04-16T23:07:39.139Z,98734.22
2023-04-16T23:10:06.421Z,98728.38
2023-04-16T23:12:33.158Z,98735.47
2023-04-16T23:15:00.880Z,98725.31
2023-04-16T23:17:28.197Z,98737.84
2023-04-16T23:19:55.017Z,98731.59
2023-04-16T23:22:21.765Z,98732.53
2023-04-16T23:24:48.484Z,98725.59
2023-04-16T23:27:15.249Z,98725.59
2023-04-16T23:29:42.094Z,98726.44
2023-04-16T23:32:08.774Z,98727.97
2023-04-16T23:34:35.645Z,98720.03
2023-04-16T23:37:02.402Z,98724.50
2023-04-16T23:39:29.634Z,98725.03
2023-04-16T23:41:57.711Z,98730.31
2023-04-16T23:44:24.538Z,98734.78
2023-04-16T23:46:51.583Z,98725.72
2023-04-16T23:49:18.367Z,98725.72
2023-04-16T23:51:45.037Z,98720.63
2023-04-16T23:54:11.766Z,98723.97
2023-04-16T23:56:38.629Z,98713.94
2023-04-16T23:59:05.437Z,98730.59
